sensor_id;sensor_type;location;lat;lon;timestamp;P1;durP1;ratioP1;P2;durP2;ratioP2
7493;SDS011;3788;49.902;8.590;2023-02-26T00:02:08;3.90;;;2.13;;
7493;SDS011;3788;49.902;8.590;2023-02-26T00:04:34;5.17;;;2.47;;
7493;SDS011;3788;49.902;8.590;2023-02-26T00:07:02;3.73;;;2.43;;
7493;SDS011;3788;49.902;8.590;2023-02-26T00:09:30;2.60;;;2.03;;
7493;SDS011;3788;49.902;8.590;2023-02-26T00:11:57;4.30;;;2.33;;
7493;SDS011;3788;49.902;8.590;2023-02-26T00:14:24;1.97;;;1.77;;
7493;SDS011;3788;49.902;8.590;2023-02-26T00:16:54;4.10;;;1.90;;
7493;SDS011;3788;49.902;8.590;2023-02-26T00:19:32;2.03;;;1.83;;
7493;SDS011;3788;49.902;8.590;2023-02-26T00:21:59;2.40;;;1.90;;
7493;SDS011;3788;49.902;8.590;2023-02-26T00:24:26;2.40;;;1.93;;
7493;SDS011;3788;49.902;8.590;2023-02-26T00:26:53;1.70;;;1.60;;
7493;SDS011;3788;49.902;8.590;2023-02-26T00:29:20;1.97;;;1.70;;
7493;SDS011;3788;49.902;8.590;2023-02-26T00:31:48;1.50;;;1.40;;
7493;SDS011;3788;49.902;8.590;2023-02-26T00:34:17;2.77;;;1.90;;
7493;SDS011;3788;49.902;8.590;2023-02-26T00:36:45;2.30;;;1.93;;
7493;SDS011;3788;49.902;8.590;2023-02-26T00:39:22;2.33;;;2.10;;
7493;SDS011;3788;49.902;8.590;2023-02-26T00:41:59;2.37;;;1.80;;
7493;SDS011;3788;49.902;8.590;2023-02-26T00:44:26;2.90;;;1.80;;
7493;SDS011;3788;49.902;8.590;2023-02-26T00:46:55;3.37;;;1.83;;
7493;SDS011;3788;49.902;8.590;2023-02-26T00:49:30;2.40;;;1.40;;
7493;SDS011;3788;49.902;8.590;2023-02-26T00:52:11;2.70;;;1.70;;
7493;SDS011;3788;49.902;8.590;2023-02-26T00:54:40;2.70;;;2.50;;
7493;SDS011;3788;49.902;8.590;2023-02-26T00:57:06;2.03;;;1.90;;
7493;SDS011;3788;49.902;8.590;2023-02-26T00:59:33;2.27;;;1.83;;
7493;SDS011;3788;49.902;8.590;2023-02-26T01:02:00;2.30;;;1.90;;
7493;SDS011;3788;49.902;8.590;2023-02-26T01:04:28;2.17;;;1.70;;
7493;SDS011;3788;49.902;8.590;2023-02-26T01:06:56;2.83;;;2.50;;
7493;SDS011;3788;49.902;8.590;2023-02-26T01:09:24;3.80;;;3.20;;
7493;SDS011;3788;49.902;8.590;2023-02-26T01:11:52;5.70;;;2.87;;
7493;SDS011;3788;49.902;8.590;2023-02-26T01:14:20;5.57;;;2.90;;
7493;SDS011;3788;49.902;8.590;2023-02-26T01:16:49;4.77;;;2.83;;
7493;SDS011;3788;49.902;8.590;2023-02-26T01:19:21;4.87;;;3.20;;
7493;SDS011;3788;49.902;8.590;2023-02-26T01:21:59;7.30;;;4.53;;
7493;SDS011;3788;49.902;8.590;2023-02-26T01:24:30;9.53;;;5.10;;
7493;SDS011;3788;49.902;8.590;2023-02-26T01:27:00;10.30;;;5.13;;
7493;SDS011;3788;49.902;8.590;2023-02-26T01:29:27;8.97;;;4.60;;
7493;SDS011;3788;49.902;8.590;2023-02-26T01:31:56;7.20;;;4.40;;
7493;SDS011;3788;49.902;8.590;2023-02-26T01:34:31;7.03;;;4.13;;
7493;SDS011;3788;49.902;8.590;2023-02-26T01:37:06;7.00;;;3.90;;
7493;SDS011;3788;49.902;8.590;2023-02-26T01:39:46;5.80;;;3.17;;
7493;SDS011;3788;49.902;8.590;2023-02-26T01:42:19;3.67;;;2.53;;
7493;SDS011;3788;49.902;8.590;2023-02-26T01:44:52;4.93;;;3.00;;
7493;SDS011;3788;49.902;8.590;2023-02-26T01:47:25;4.13;;;2.50;;
7493;SDS011;3788;49.902;8.590;2023-02-26T01:50:00;3.07;;;2.33;;
7493;SDS011;3788;49.902;8.590;2023-02-26T01:55:37;3.63;;;2.40;;
7493;SDS011;3788;49.902;8.590;2023-02-26T01:58:07;4.07;;;2.10;;
7493;SDS011;3788;49.902;8.590;2023-02-26T02:00:34;3.97;;;2.17;;
7493;SDS011;3788;49.902;8.590;2023-02-26T02:03:00;3.27;;;2.30;;
7493;SDS011;3788;49.902;8.590;2023-02-26T02:05:29;2.40;;;2.20;;
7493;SDS011;3788;49.902;8.590;2023-02-26T02:07:59;2.50;;;2.17;;
7493;SDS011;3788;49.902;8.590;2023-02-26T02:10:26;3.77;;;2.50;;
7493;SDS011;3788;49.902;8.590;2023-02-26T02:12:57;5.23;;;2.93;;
7493;SDS011;3788;49.902;8.590;2023-02-26T02:15:32;2.80;;;2.10;;
7493;SDS011;3788;49.902;8.590;2023-02-26T02:18:07;2.93;;;2.10;;
7493;SDS011;3788;49.902;8.590;2023-02-26T02:20:56;3.50;;;2.07;;
7493;SDS011;3788;49.902;8.590;2023-02-26T02:23:38;3.23;;;2.30;;
7493;SDS011;3788;49.902;8.590;2023-02-26T02:26:17;2.57;;;2.30;;
7493;SDS011;3788;49.902;8.590;2023-02-26T02:29:02;2.90;;;2.10;;
7493;SDS011;3788;49.902;8.590;2023-02-26T02:31:58;4.13;;;2.20;;
7493;SDS011;3788;49.902;8.590;2023-02-26T02:34:28;2.40;;;1.93;;
7493;SDS011;3788;49.902;8.590;2023-02-26T02:37:01;2.20;;;2.00;;
7493;SDS011;3788;49.902;8.590;2023-02-26T02:39:32;1.60;;;1.50;;
7493;SDS011;3788;49.902;8.590;2023-02-26T02:42:02;1.83;;;1.73;;
7493;SDS011;3788;49.902;8.590;2023-02-26T02:44:34;1.83;;;1.73;;
7493;SDS011;3788;49.902;8.590;2023-02-26T02:47:05;2.93;;;2.53;;
7493;SDS011;3788;49.902;8.590;2023-02-26T02:49:38;3.10;;;2.27;;
7493;SDS011;3788;49.902;8.590;2023-02-26T02:52:11;2.80;;;1.80;;
7493;SDS011;3788;49.902;8.590;2023-02-26T02:54:43;2.93;;;1.87;;
7493;SDS011;3788;49.902;8.590;2023-02-26T02:57:14;1.60;;;1.50;;
7493;SDS011;3788;49.902;8.590;2023-02-26T02:59:46;2.43;;;1.70;;
7493;SDS011;3788;49.902;8.590;2023-02-26T03:02:17;1.70;;;1.60;;
7493;SDS011;3788;49.902;8.590;2023-02-26T03:04:48;1.83;;;1.73;;
7493;SDS011;3788;49.902;8.590;2023-02-26T03:07:15;3.30;;;1.73;;
7493;SDS011;3788;49.902;8.590;2023-02-26T03:09:42;2.13;;;1.40;;
7493;SDS011;3788;49.902;8.590;2023-02-26T03:12:09;2.20;;;1.90;;
7493;SDS011;3788;49.902;8.590;2023-02-26T03:14:36;3.87;;;2.30;;
7493;SDS011;3788;49.902;8.590;2023-02-26T03:17:07;1.60;;;1.50;;
7493;SDS011;3788;49.902;8.590;2023-02-26T03:19:50;2.10;;;1.63;;
7493;SDS011;3788;49.902;8.590;2023-02-26T03:22:27;3.47;;;1.67;;
7493;SDS011;3788;49.902;8.590;2023-02-26T03:25:01;2.33;;;1.83;;
7493;SDS011;3788;49.902;8.590;2023-02-26T03:27:33;3.93;;;1.67;;
7493;SDS011;3788;49.902;8.590;2023-02-26T03:30:05;3.47;;;1.80;;
7493;SDS011;3788;49.902;8.590;2023-02-26T03:32:40;2.87;;;1.40;;
7493;SDS011;3788;49.902;8.590;2023-02-26T03:35:12;1.80;;;1.50;;
7493;SDS011;3788;49.902;8.590;2023-02-26T03:37:42;2.67;;;1.73;;
7493;SDS011;3788;49.902;8.590;2023-02-26T03:40:15;2.00;;;1.33;;
7493;SDS011;3788;49.902;8.590;2023-02-26T03:42:46;1.83;;;1.33;;
7493;SDS011;3788;49.902;8.590;2023-02-26T03:45:17;3.50;;;1.33;;
7493;SDS011;3788;49.902;8.590;2023-02-26T03:47:49;1.50;;;1.40;;
7493;SDS011;3788;49.902;8.590;2023-02-26T03:50:19;2.17;;;1.47;;
7493;SDS011;3788;49.902;8.590;2023-02-26T03:52:50;1.30;;;1.20;;
7493;SDS011;3788;49.902;8.590;2023-02-26T03:55:20;2.30;;;1.30;;
7493;SDS011;3788;49.902;8.590;2023-02-26T03:57:51;3.43;;;1.20;;
7493;SDS011;3788;49.902;8.590;2023-02-26T04:00:18;1.67;;;1.40;;
7493;SDS011;3788;49.902;8.590;2023-02-26T04:02:47;1.90;;;1.10;;
7493;SDS011;3788;49.902;8.590;2023-02-26T04:05:20;3.33;;;1.50;;
7493;SDS011;3788;49.902;8.590;2023-02-26T04:07:50;3.00;;;1.20;;
7493;SDS011;3788;49.902;8.590;2023-02-26T04:10:18;1.67;;;1.27;;
7493;SDS011;3788;49.902;8.590;2023-02-26T04:12:46;1.60;;;1.50;;
7493;SDS011;3788;49.902;8.590;2023-02-26T04:15:13;1.60;;;1.30;;
7493;SDS011;3788;49.902;8.590;2023-02-26T04:17:39;1.57;;;1.30;;
7493;SDS011;3788;49.902;8.590;2023-02-26T04:20:08;1.60;;;1.37;;
7493;SDS011;3788;49.902;8.590;2023-02-26T04:22:36;1.30;;;1.20;;
7493;SDS011;3788;49.902;8.590;2023-02-26T04:25:03;1.33;;;1.20;;
7493;SDS011;3788;49.902;8.590;2023-02-26T04:27:30;1.37;;;1.27;;
7493;SDS011;3788;49.902;8.590;2023-02-26T04:29:57;1.40;;;1.30;;
7493;SDS011;3788;49.902;8.590;2023-02-26T04:32:24;1.37;;;1.27;;
7493;SDS011;3788;49.902;8.590;2023-02-26T04:34:50;1.90;;;1.70;;
7493;SDS011;3788;49.902;8.590;2023-02-26T04:37:19;1.50;;;1.40;;
7493;SDS011;3788;49.902;8.590;2023-02-26T04:39:45;1.40;;;1.30;;
7493;SDS011;3788;49.902;8.590;2023-02-26T04:42:12;3.13;;;1.73;;
7493;SDS011;3788;49.902;8.590;2023-02-26T04:44:39;1.60;;;1.50;;
7493;SDS011;3788;49.902;8.590;2023-02-26T04:47:06;1.50;;;1.40;;
7493;SDS011;3788;49.902;8.590;2023-02-26T04:49:33;1.57;;;1.47;;
7493;SDS011;3788;49.902;8.590;2023-02-26T04:52:00;2.33;;;1.80;;
7493;SDS011;3788;49.902;8.590;2023-02-26T04:54:28;3.00;;;1.90;;
7493;SDS011;3788;49.902;8.590;2023-02-26T04:56:55;1.97;;;1.77;;
7493;SDS011;3788;49.902;8.590;2023-02-26T04:59:22;1.60;;;1.50;;
7493;SDS011;3788;49.902;8.590;2023-02-26T05:01:48;1.80;;;1.60;;
7493;SDS011;3788;49.902;8.590;2023-02-26T05:04:15;2.60;;;1.60;;
7493;SDS011;3788;49.902;8.590;2023-02-26T05:06:42;1.77;;;1.60;;
7493;SDS011;3788;49.902;8.590;2023-02-26T05:09:08;2.30;;;1.80;;
7493;SDS011;3788;49.902;8.590;2023-02-26T05:11:37;3.40;;;1.83;;
7493;SDS011;3788;49.902;8.590;2023-02-26T05:14:03;4.17;;;1.87;;
7493;SDS011;3788;49.902;8.590;2023-02-26T05:16:30;2.80;;;1.90;;
7493;SDS011;3788;49.902;8.590;2023-02-26T05:18:56;2.00;;;1.90;;
7493;SDS011;3788;49.902;8.590;2023-02-26T05:21:23;2.37;;;1.73;;
7493;SDS011;3788;49.902;8.590;2023-02-26T05:23:50;2.67;;;1.60;;
7493;SDS011;3788;49.902;8.590;2023-02-26T05:26:16;2.23;;;1.63;;
7493;SDS011;3788;49.902;8.590;2023-02-26T05:28:45;3.17;;;1.87;;
7493;SDS011;3788;49.902;8.590;2023-02-26T05:31:11;2.53;;;1.93;;
7493;SDS011;3788;49.902;8.590;2023-02-26T05:33:38;2.50;;;2.00;;
7493;SDS011;3788;49.902;8.590;2023-02-26T05:36:05;4.37;;;1.90;;
7493;SDS011;3788;49.902;8.590;2023-02-26T05:38:32;2.40;;;2.20;;
7493;SDS011;3788;49.902;8.590;2023-02-26T05:40:59;2.83;;;2.10;;
7493;SDS011;3788;49.902;8.590;2023-02-26T05:43:26;1.73;;;1.50;;
7493;SDS011;3788;49.902;8.590;2023-02-26T05:45:55;2.80;;;2.00;;
7493;SDS011;3788;49.902;8.590;2023-02-26T05:48:22;2.40;;;2.20;;
7493;SDS011;3788;49.902;8.590;2023-02-26T05:50:49;2.10;;;1.90;;
7493;SDS011;3788;49.902;8.590;2023-02-26T05:53:16;2.57;;;2.10;;
7493;SDS011;3788;49.902;8.590;2023-02-26T05:55:43;2.40;;;2.20;;
7493;SDS011;3788;49.902;8.590;2023-02-26T05:58:10;2.83;;;2.10;;
7493;SDS011;3788;49.902;8.590;2023-02-26T06:00:37;3.70;;;2.10;;
7493;SDS011;3788;49.902;8.590;2023-02-26T06:03:05;3.83;;;2.47;;
7493;SDS011;3788;49.902;8.590;2023-02-26T06:05:32;3.17;;;2.30;;
7493;SDS011;3788;49.902;8.590;2023-02-26T06:08:00;2.37;;;1.90;;
7493;SDS011;3788;49.902;8.590;2023-02-26T06:10:26;2.37;;;2.10;;
7493;SDS011;3788;49.902;8.590;2023-02-26T06:12:53;2.93;;;1.97;;
7493;SDS011;3788;49.902;8.590;2023-02-26T06:15:20;2.53;;;2.03;;
7493;SDS011;3788;49.902;8.590;2023-02-26T06:17:47;3.20;;;2.20;;
7493;SDS011;3788;49.902;8.590;2023-02-26T06:20:15;2.63;;;2.00;;
7493;SDS011;3788;49.902;8.590;2023-02-26T06:22:42;2.13;;;1.87;;
7493;SDS011;3788;49.902;8.590;2023-02-26T06:25:09;4.00;;;2.00;;
7493;SDS011;3788;49.902;8.590;2023-02-26T06:27:35;2.77;;;1.93;;
7493;SDS011;3788;49.902;8.590;2023-02-26T06:30:02;4.67;;;2.00;;
7493;SDS011;3788;49.902;8.590;2023-02-26T06:32:29;4.27;;;2.00;;
7493;SDS011;3788;49.902;8.590;2023-02-26T06:34:56;2.27;;;1.97;;
7493;SDS011;3788;49.902;8.590;2023-02-26T06:37:24;4.73;;;2.83;;
7493;SDS011;3788;49.902;8.590;2023-02-26T06:39:51;4.13;;;3.20;;
7493;SDS011;3788;49.902;8.590;2023-02-26T06:42:18;4.07;;;2.20;;
7493;SDS011;3788;49.902;8.590;2023-02-26T06:44:44;3.20;;;1.90;;
7493;SDS011;3788;49.902;8.590;2023-02-26T06:47:11;2.73;;;1.80;;
7493;SDS011;3788;49.902;8.590;2023-02-26T06:49:38;3.17;;;1.50;;
7493;SDS011;3788;49.902;8.590;2023-02-26T06:52:05;3.37;;;1.80;;
7493;SDS011;3788;49.902;8.590;2023-02-26T06:54:33;2.60;;;1.77;;
7493;SDS011;3788;49.902;8.590;2023-02-26T06:57:00;3.13;;;1.90;;
7493;SDS011;3788;49.902;8.590;2023-02-26T06:59:27;3.33;;;2.10;;
7493;SDS011;3788;49.902;8.590;2023-02-26T07:01:53;2.20;;;2.00;;
7493;SDS011;3788;49.902;8.590;2023-02-26T07:04:21;5.13;;;2.47;;
7493;SDS011;3788;49.902;8.590;2023-02-26T07:06:47;3.50;;;2.00;;
7493;SDS011;3788;49.902;8.590;2023-02-26T07:09:14;1.93;;;1.77;;
7493;SDS011;3788;49.902;8.590;2023-02-26T07:11:45;2.70;;;1.90;;
7493;SDS011;3788;49.902;8.590;2023-02-26T07:14:11;3.77;;;1.90;;
7493;SDS011;3788;49.902;8.590;2023-02-26T07:16:38;2.40;;;1.53;;
7493;SDS011;3788;49.902;8.590;2023-02-26T07:19:05;2.87;;;1.90;;
7493;SDS011;3788;49.902;8.590;2023-02-26T07:21:31;2.30;;;2.10;;
7493;SDS011;3788;49.902;8.590;2023-02-26T07:23:58;3.83;;;2.53;;
7493;SDS011;3788;49.902;8.590;2023-02-26T07:26:25;3.23;;;1.90;;
7493;SDS011;3788;49.902;8.590;2023-02-26T07:28:53;2.20;;;2.00;;
7493;SDS011;3788;49.902;8.590;2023-02-26T07:31:20;1.83;;;1.73;;
7493;SDS011;3788;49.902;8.590;2023-02-26T07:33:46;1.70;;;1.60;;
7493;SDS011;3788;49.902;8.590;2023-02-26T07:36:13;2.47;;;1.90;;
7493;SDS011;3788;49.902;8.590;2023-02-26T07:38:40;2.43;;;1.77;;
7493;SDS011;3788;49.902;8.590;2023-02-26T07:41:06;2.80;;;1.53;;
7493;SDS011;3788;49.902;8.590;2023-02-26T07:43:33;1.73;;;1.50;;
7493;SDS011;3788;49.902;8.590;2023-02-26T07:46:01;2.03;;;1.60;;
7493;SDS011;3788;49.902;8.590;2023-02-26T07:48:28;3.60;;;1.80;;
7493;SDS011;3788;49.902;8.590;2023-02-26T07:50:55;3.37;;;2.20;;
7493;SDS011;3788;49.902;8.590;2023-02-26T07:53:22;3.13;;;1.60;;
7493;SDS011;3788;49.902;8.590;2023-02-26T07:55:49;1.90;;;1.70;;
7493;SDS011;3788;49.902;8.590;2023-02-26T07:58:16;5.03;;;2.07;;
7493;SDS011;3788;49.902;8.590;2023-02-26T08:00:43;4.33;;;2.30;;
7493;SDS011;3788;49.902;8.590;2023-02-26T08:03:12;2.17;;;1.93;;
7493;SDS011;3788;49.902;8.590;2023-02-26T08:05:39;1.80;;;1.70;;
7493;SDS011;3788;49.902;8.590;2023-02-26T08:08:06;3.13;;;2.10;;
7493;SDS011;3788;49.902;8.590;2023-02-26T08:10:33;2.70;;;2.30;;
7493;SDS011;3788;49.902;8.590;2023-02-26T08:12:59;3.10;;;2.00;;
7493;SDS011;3788;49.902;8.590;2023-02-26T08:15:26;2.90;;;1.63;;
7493;SDS011;3788;49.902;8.590;2023-02-26T08:17:53;1.67;;;1.53;;
7493;SDS011;3788;49.902;8.590;2023-02-26T08:20:22;3.10;;;1.73;;
7493;SDS011;3788;49.902;8.590;2023-02-26T08:22:49;2.30;;;2.10;;
7493;SDS011;3788;49.902;8.590;2023-02-26T08:25:16;2.17;;;1.90;;
7493;SDS011;3788;49.902;8.590;2023-02-26T08:27:42;2.87;;;1.97;;
7493;SDS011;3788;49.902;8.590;2023-02-26T08:30:10;2.30;;;1.80;;
7493;SDS011;3788;49.902;8.590;2023-02-26T08:32:37;2.10;;;1.80;;
7493;SDS011;3788;49.902;8.590;2023-02-26T08:35:06;2.30;;;1.87;;
7493;SDS011;3788;49.902;8.590;2023-02-26T08:37:35;1.87;;;1.77;;
7493;SDS011;3788;49.902;8.590;2023-02-26T08:40:02;1.70;;;1.60;;
7493;SDS011;3788;49.902;8.590;2023-02-26T08:42:29;3.73;;;1.80;;
7493;SDS011;3788;49.902;8.590;2023-02-26T08:44:56;3.70;;;2.03;;
7493;SDS011;3788;49.902;8.590;2023-02-26T08:47:23;4.17;;;1.63;;
7493;SDS011;3788;49.902;8.590;2023-02-26T08:49:50;1.80;;;1.50;;
7493;SDS011;3788;49.902;8.590;2023-02-26T08:52:18;2.90;;;2.10;;
7493;SDS011;3788;49.902;8.590;2023-02-26T08:54:46;1.97;;;1.63;;
7493;SDS011;3788;49.902;8.590;2023-02-26T08:57:13;2.07;;;1.80;;
7493;SDS011;3788;49.902;8.590;2023-02-26T08:59:40;2.60;;;1.80;;
7493;SDS011;3788;49.902;8.590;2023-02-26T09:02:08;3.33;;;2.10;;
7493;SDS011;3788;49.902;8.590;2023-02-26T09:04:36;2.83;;;1.80;;
7493;SDS011;3788;49.902;8.590;2023-02-26T09:07:03;1.80;;;1.53;;
7493;SDS011;3788;49.902;8.590;2023-02-26T09:09:29;2.30;;;1.70;;
7493;SDS011;3788;49.902;8.590;2023-02-26T09:11:57;3.37;;;2.00;;
7493;SDS011;3788;49.902;8.590;2023-02-26T09:14:24;1.60;;;1.50;;
7493;SDS011;3788;49.902;8.590;2023-02-26T09:16:51;2.27;;;1.60;;
7493;SDS011;3788;49.902;8.590;2023-02-26T09:19:18;3.57;;;1.50;;
7493;SDS011;3788;49.902;8.590;2023-02-26T09:21:45;1.70;;;1.60;;
7493;SDS011;3788;49.902;8.590;2023-02-26T09:24:12;1.70;;;1.60;;
7493;SDS011;3788;49.902;8.590;2023-02-26T09:26:39;1.80;;;1.70;;
7493;SDS011;3788;49.902;8.590;2023-02-26T09:29:07;3.50;;;1.70;;
7493;SDS011;3788;49.902;8.590;2023-02-26T09:31:35;2.97;;;1.40;;
7493;SDS011;3788;49.902;8.590;2023-02-26T09:34:02;1.93;;;1.40;;
7493;SDS011;3788;49.902;8.590;2023-02-26T09:36:29;2.10;;;1.50;;
7493;SDS011;3788;49.902;8.590;2023-02-26T09:38:56;1.93;;;1.30;;
7493;SDS011;3788;49.902;8.590;2023-02-26T09:41:23;2.47;;;1.40;;
7493;SDS011;3788;49.902;8.590;2023-02-26T09:44:08;1.97;;;1.47;;
7493;SDS011;3788;49.902;8.590;2023-02-26T09:46:43;1.60;;;1.50;;
7493;SDS011;3788;49.902;8.590;2023-02-26T09:49:22;3.63;;;1.20;;
7493;SDS011;3788;49.902;8.590;2023-02-26T09:51:57;1.40;;;1.30;;
7493;SDS011;3788;49.902;8.590;2023-02-26T09:54:28;1.90;;;1.50;;
7493;SDS011;3788;49.902;8.590;2023-02-26T09:56:59;1.83;;;1.60;;
7493;SDS011;3788;49.902;8.590;2023-02-26T09:59:31;2.33;;;1.50;;
7493;SDS011;3788;49.902;8.590;2023-02-26T10:01:59;1.40;;;1.30;;
7493;SDS011;3788;49.902;8.590;2023-02-26T10:04:39;2.53;;;1.50;;
7493;SDS011;3788;49.902;8.590;2023-02-26T10:07:17;1.90;;;1.40;;
7493;SDS011;3788;49.902;8.590;2023-02-26T10:10:00;2.00;;;1.30;;
7493;SDS011;3788;49.902;8.590;2023-02-26T10:12:34;1.57;;;1.20;;
7493;SDS011;3788;49.902;8.590;2023-02-26T10:15:05;1.57;;;1.13;;
7493;SDS011;3788;49.902;8.590;2023-02-26T10:17:37;2.17;;;1.70;;
7493;SDS011;3788;49.902;8.590;2023-02-26T10:20:13;1.47;;;1.30;;
7493;SDS011;3788;49.902;8.590;2023-02-26T10:22:46;2.17;;;1.80;;
7493;SDS011;3788;49.902;8.590;2023-02-26T10:25:21;1.37;;;1.07;;
7493;SDS011;3788;49.902;8.590;2023-02-26T10:27:54;1.73;;;1.27;;
7493;SDS011;3788;49.902;8.590;2023-02-26T10:30:29;1.53;;;1.27;;
7493;SDS011;3788;49.902;8.590;2023-02-26T10:33:03;2.30;;;1.40;;
7493;SDS011;3788;49.902;8.590;2023-02-26T10:35:40;2.93;;;1.50;;
7493;SDS011;3788;49.902;8.590;2023-02-26T10:38:12;2.33;;;1.50;;
7493;SDS011;3788;49.902;8.590;2023-02-26T10:40:43;1.47;;;1.10;;
7493;SDS011;3788;49.902;8.590;2023-02-26T10:43:15;1.50;;;1.40;;
7493;SDS011;3788;49.902;8.590;2023-02-26T10:45:49;1.60;;;1.50;;
7493;SDS011;3788;49.902;8.590;2023-02-26T10:48:27;1.47;;;1.10;;
7493;SDS011;3788;49.902;8.590;2023-02-26T10:51:09;1.63;;;1.20;;
7493;SDS011;3788;49.902;8.590;2023-02-26T10:53:38;1.87;;;1.47;;
7493;SDS011;3788;49.902;8.590;2023-02-26T10:56:09;2.03;;;1.30;;
7493;SDS011;3788;49.902;8.590;2023-02-26T10:58:40;2.00;;;1.13;;
7493;SDS011;3788;49.902;8.590;2023-02-26T11:01:12;1.53;;;1.20;;
7493;SDS011;3788;49.902;8.590;2023-02-26T11:03:42;2.83;;;1.33;;
7493;SDS011;3788;49.902;8.590;2023-02-26T11:06:14;2.00;;;1.60;;
7493;SDS011;3788;49.902;8.590;2023-02-26T11:08:47;1.63;;;1.00;;
7493;SDS011;3788;49.902;8.590;2023-02-26T11:14:07;2.20;;;1.20;;
7493;SDS011;3788;49.902;8.590;2023-02-26T11:16:41;1.70;;;0.90;;
7493;SDS011;3788;49.902;8.590;2023-02-26T11:19:12;1.30;;;1.20;;
7493;SDS011;3788;49.902;8.590;2023-02-26T11:21:42;1.47;;;1.27;;
7493;SDS011;3788;49.902;8.590;2023-02-26T11:24:11;1.57;;;1.20;;
7493;SDS011;3788;49.902;8.590;2023-02-26T11:26:57;1.37;;;1.27;;
7493;SDS011;3788;49.902;8.590;2023-02-26T11:29:28;1.30;;;1.20;;
7493;SDS011;3788;49.902;8.590;2023-02-26T11:32:04;3.43;;;1.40;;
7493;SDS011;3788;49.902;8.590;2023-02-26T11:34:32;1.57;;;1.20;;
7493;SDS011;3788;49.902;8.590;2023-02-26T11:37:00;1.93;;;1.30;;
7493;SDS011;3788;49.902;8.590;2023-02-26T11:39:32;2.53;;;1.30;;
7493;SDS011;3788;49.902;8.590;2023-02-26T11:42:02;2.63;;;1.77;;
7493;SDS011;3788;49.902;8.590;2023-02-26T11:44:32;1.67;;;1.50;;
7493;SDS011;3788;49.902;8.590;2023-02-26T11:47:02;1.80;;;1.70;;
7493;SDS011;3788;49.902;8.590;2023-02-26T11:49:35;1.30;;;1.20;;
7493;SDS011;3788;49.902;8.590;2023-02-26T11:52:19;1.50;;;1.40;;
7493;SDS011;3788;49.902;8.590;2023-02-26T11:54:50;0.90;;;0.90;;
7493;SDS011;3788;49.902;8.590;2023-02-26T11:57:27;1.03;;;1.03;;
7493;SDS011;3788;49.902;8.590;2023-02-26T11:59:56;1.17;;;1.10;;
7493;SDS011;3788;49.902;8.590;2023-02-26T12:02:31;1.17;;;1.13;;
7493;SDS011;3788;49.902;8.590;2023-02-26T12:05:00;4.27;;;2.53;;
7493;SDS011;3788;49.902;8.590;2023-02-26T12:07:30;3.27;;;2.23;;
7493;SDS011;3788;49.902;8.590;2023-02-26T12:09:57;1.40;;;1.30;;
7493;SDS011;3788;49.902;8.590;2023-02-26T12:12:28;1.33;;;1.23;;
7493;SDS011;3788;49.902;8.590;2023-02-26T12:15:19;2.13;;;1.33;;
7493;SDS011;3788;49.902;8.590;2023-02-26T12:18:08;2.60;;;1.10;;
7493;SDS011;3788;49.902;8.590;2023-02-26T12:20:44;1.40;;;1.30;;
7493;SDS011;3788;49.902;8.590;2023-02-26T12:26:29;1.50;;;1.00;;
7493;SDS011;3788;49.902;8.590;2023-02-26T12:32:06;3.30;;;2.30;;
7493;SDS011;3788;49.902;8.590;2023-02-26T12:35:08;1.60;;;1.50;;
7493;SDS011;3788;49.902;8.590;2023-02-26T12:37:59;12.80;;;4.67;;
7493;SDS011;3788;49.902;8.590;2023-02-26T12:40:58;1.40;;;1.30;;
7493;SDS011;3788;49.902;8.590;2023-02-26T12:43:43;0.87;;;0.87;;
7493;SDS011;3788;49.902;8.590;2023-02-26T12:46:20;1.63;;;1.10;;
7493;SDS011;3788;49.902;8.590;2023-02-26T12:49:02;1.60;;;0.90;;
7493;SDS011;3788;49.902;8.590;2023-02-26T12:52:05;1.70;;;1.30;;
7493;SDS011;3788;49.902;8.590;2023-02-26T12:54:51;1.00;;;0.90;;
7493;SDS011;3788;49.902;8.590;2023-02-26T13:09:12;2.00;;;1.73;;
7493;SDS011;3788;49.902;8.590;2023-02-26T13:11:49;1.30;;;1.20;;
7493;SDS011;3788;49.902;8.590;2023-02-26T13:14:29;2.57;;;1.60;;
7493;SDS011;3788;49.902;8.590;2023-02-26T13:17:07;1.90;;;1.47;;
7493;SDS011;3788;49.902;8.590;2023-02-26T13:19:40;0.70;;;0.70;;
7493;SDS011;3788;49.902;8.590;2023-02-26T13:22:14;1.10;;;1.00;;
7493;SDS011;3788;49.902;8.590;2023-02-26T13:24:48;0.70;;;0.70;;
7493;SDS011;3788;49.902;8.590;2023-02-26T13:27:19;0.90;;;0.90;;
7493;SDS011;3788;49.902;8.590;2023-02-26T13:29:52;1.03;;;0.80;;
7493;SDS011;3788;49.902;8.590;2023-02-26T13:32:30;1.43;;;0.97;;
7493;SDS011;3788;49.902;8.590;2023-02-26T13:35:00;0.80;;;0.80;;
7493;SDS011;3788;49.902;8.590;2023-02-26T13:37:32;1.00;;;1.00;;
7493;SDS011;3788;49.902;8.590;2023-02-26T13:40:11;2.17;;;0.87;;
7493;SDS011;3788;49.902;8.590;2023-02-26T13:43:03;1.40;;;1.30;;
7493;SDS011;3788;49.902;8.590;2023-02-26T13:45:41;0.70;;;0.70;;
7493;SDS011;3788;49.902;8.590;2023-02-26T13:48:16;0.90;;;0.90;;
7493;SDS011;3788;49.902;8.590;2023-02-26T13:50:53;1.40;;;1.30;;
7493;SDS011;3788;49.902;8.590;2023-02-26T13:56:21;2.40;;;1.83;;
7493;SDS011;3788;49.902;8.590;2023-02-26T13:59:04;1.40;;;1.30;;
7493;SDS011;3788;49.902;8.590;2023-02-26T14:01:52;10.47;;;5.83;;
7493;SDS011;3788;49.902;8.590;2023-02-26T14:04:23;0.80;;;0.80;;
7493;SDS011;3788;49.902;8.590;2023-02-26T14:06:52;1.50;;;1.40;;
7493;SDS011;3788;49.902;8.590;2023-02-26T14:09:35;1.37;;;1.30;;
7493;SDS011;3788;49.902;8.590;2023-02-26T14:12:29;1.47;;;1.20;;
7493;SDS011;3788;49.902;8.590;2023-02-26T14:17:59;1.50;;;0.90;;
7493;SDS011;3788;49.902;8.590;2023-02-26T14:20:28;0.80;;;0.80;;
7493;SDS011;3788;49.902;8.590;2023-02-26T14:26:04;2.73;;;1.40;;
7493;SDS011;3788;49.902;8.590;2023-02-26T14:28:42;1.17;;;1.00;;
7493;SDS011;3788;49.902;8.590;2023-02-26T14:31:23;2.57;;;1.20;;
7493;SDS011;3788;49.902;8.590;2023-02-26T14:36:42;2.90;;;1.30;;
7493;SDS011;3788;49.902;8.590;2023-02-26T14:39:15;1.20;;;1.10;;
7493;SDS011;3788;49.902;8.590;2023-02-26T14:41:54;1.23;;;1.00;;
7493;SDS011;3788;49.902;8.590;2023-02-26T14:44:28;2.47;;;1.60;;
7493;SDS011;3788;49.902;8.590;2023-02-26T14:46:58;2.03;;;1.20;;
7493;SDS011;3788;49.902;8.590;2023-02-26T14:49:26;1.63;;;1.20;;
7493;SDS011;3788;49.902;8.590;2023-02-26T14:54:58;1.53;;;1.07;;
7493;SDS011;3788;49.902;8.590;2023-02-26T14:57:37;1.63;;;1.30;;
7493;SDS011;3788;49.902;8.590;2023-02-26T15:00:15;1.00;;;0.90;;
7493;SDS011;3788;49.902;8.590;2023-02-26T15:03:00;1.10;;;1.00;;
7493;SDS011;3788;49.902;8.590;2023-02-26T15:05:50;1.37;;;1.07;;
7493;SDS011;3788;49.902;8.590;2023-02-26T15:08:37;1.03;;;0.80;;
7493;SDS011;3788;49.902;8.590;2023-02-26T15:11:19;1.57;;;1.20;;
7493;SDS011;3788;49.902;8.590;2023-02-26T15:14:24;1.63;;;1.20;;
7493;SDS011;3788;49.902;8.590;2023-02-26T15:17:08;0.87;;;0.73;;
7493;SDS011;3788;49.902;8.590;2023-02-26T15:19:54;1.03;;;1.00;;
7493;SDS011;3788;49.902;8.590;2023-02-26T15:22:33;0.80;;;0.80;;
7493;SDS011;3788;49.902;8.590;2023-02-26T15:25:13;0.90;;;0.70;;
7493;SDS011;3788;49.902;8.590;2023-02-26T15:27:44;1.33;;;1.20;;
7493;SDS011;3788;49.902;8.590;2023-02-26T15:30:12;0.97;;;0.97;;
7493;SDS011;3788;49.902;8.590;2023-02-26T15:32:43;2.20;;;1.40;;
7493;SDS011;3788;49.902;8.590;2023-02-26T15:35:14;1.67;;;1.20;;
7493;SDS011;3788;49.902;8.590;2023-02-26T15:37:47;2.67;;;1.40;;
7493;SDS011;3788;49.902;8.590;2023-02-26T15:40:15;1.10;;;1.00;;
7493;SDS011;3788;49.902;8.590;2023-02-26T15:42:43;2.77;;;1.60;;
7493;SDS011;3788;49.902;8.590;2023-02-26T15:45:17;1.07;;;1.00;;
7493;SDS011;3788;49.902;8.590;2023-02-26T15:47:58;1.67;;;1.37;;
7493;SDS011;3788;49.902;8.590;2023-02-26T15:50:28;2.10;;;1.37;;
7493;SDS011;3788;49.902;8.590;2023-02-26T15:52:58;4.70;;;2.20;;
7493;SDS011;3788;49.902;8.590;2023-02-26T15:55:31;3.93;;;2.23;;
7493;SDS011;3788;49.902;8.590;2023-02-26T15:58:00;2.47;;;1.80;;
7493;SDS011;3788;49.902;8.590;2023-02-26T16:00:30;2.90;;;2.07;;
7493;SDS011;3788;49.902;8.590;2023-02-26T16:03:02;1.47;;;1.20;;
7493;SDS011;3788;49.902;8.590;2023-02-26T16:05:30;2.07;;;1.87;;
7493;SDS011;3788;49.902;8.590;2023-02-26T16:07:59;6.03;;;3.57;;
7493;SDS011;3788;49.902;8.590;2023-02-26T16:10:31;6.27;;;2.80;;
7493;SDS011;3788;49.902;8.590;2023-02-26T16:13:02;7.30;;;3.80;;
7493;SDS011;3788;49.902;8.590;2023-02-26T16:15:33;4.53;;;2.60;;
7493;SDS011;3788;49.902;8.590;2023-02-26T16:18:06;3.43;;;1.80;;
7493;SDS011;3788;49.902;8.590;2023-02-26T16:20:39;3.07;;;2.07;;